Portada
METAR-TAF:

METAR-TAF

Aeropuertos :

Aeropuerto Internacional de Túnez-Cartago

Túnez, Túnez

latitud: 36-50N, longitud: 010-14E, altitud: 3 m

Observación

El informe se hizo hace 36 minutos, a las 08:30 UTC
Viento 6 kt del sureste, variando entre este y sur
Temperatura 17°C
Humedad 63%
Presión 1022 hPa
Visibilidad 10 km o más
Escasas nubes a una altura de 2600 ft

METAR: DTTA 070830Z 14006KT 100V180 9999 FEW026 17/10 Q1022

Hora: 10:06 (09:06 UTC)

Pronóstico

El informe se hizo hace 4 horas y 6 minutos, a las 05:00 UTC
Pronóstico válido del 07 a las 06 UTC al 08 a las 06 UTC
Viento 6 kt del noreste
Visibilidad: 8000 m
Escasas nubes a una altura de 2300 ft
Probabilidad 40%
del 07 a las 06 UTC al 07 a las 08 UTC
Visibilidad: 3000 m
neblina
Evolucionando progresivamente
del 07 a las 10 UTC al 07 a las 12 UTC
Viento 13 kt del sur-sureste

TAF: DTTA 070500Z 0706/0806 05006KT 8000 FEW023 PROB40 0706/0708 3000 BR BECMG 0710/0712 15013KT

Observaciones y pronósticos meteorológicos de más de 4000 aeropuertos (mensajes METAR y TAF).

Los puntos amarillos y rojos representan las estaciones disponibles.

Ponga el ratón en el punto deseado para ver el nombre de la estación.

Haga clic para ver las observaciones y los pronósticos meteorológicos.

Para cambiar el mapa : haga clic en los botones verdes con una cruz de color negro para hacer un zoom, en el botón verde con un guión para alejar o en las flechas verdes para mapas adyacentes.


METAR-TAF: